createdAt,value
2023-04-11T00:01:01.870Z,42.13
2023-04-11T00:03:30.175Z,42.28
2023-04-11T00:05:58.761Z,42.67
2023-04-11T00:08:27.257Z,42.65
2023-04-11T00:10:55.397Z,43.59
2023-04-11T00:13:24.105Z,43.64
2023-04-11T00:15:55.882Z,44.17
2023-04-11T00:18:25.635Z,44.46
2023-04-11T00:20:53.829Z,44.98
2023-04-11T00:23:22.387Z,45.65
2023-04-11T00:25:51.348Z,45.75
2023-04-11T00:28:20.445Z,46.11
2023-04-11T00:30:48.498Z,46.67
2023-04-11T00:33:17.319Z,46.72
2023-04-11T00:35:45.795Z,46.80
2023-04-11T00:38:15.335Z,47.25
2023-04-11T00:40:44.276Z,47.48
2023-04-11T00:43:13.421Z,48.09
2023-04-11T00:45:41.759Z,48.18
2023-04-11T00:48:10.991Z,48.37
2023-04-11T00:50:42.199Z,48.92
2023-04-11T00:53:13.280Z,48.80
2023-04-11T00:55:41.628Z,49.05
2023-04-11T00:58:10.694Z,49.23
2023-04-11T01:00:39.399Z,49.60
2023-04-11T01:03:09.070Z,49.87
2023-04-11T01:05:38.070Z,49.97
2023-04-11T01:08:08.323Z,50.06
2023-04-11T01:10:38.447Z,50.28
2023-04-11T01:13:07.311Z,50.36
2023-04-11T01:15:36.067Z,50.77
2023-04-11T01:18:05.796Z,50.56
2023-04-11T01:20:34.906Z,50.55
2023-04-11T01:23:03.602Z,50.69
2023-04-11T01:25:32.252Z,50.58
2023-04-11T01:28:01.818Z,50.38
2023-04-11T01:30:30.846Z,50.28
2023-04-11T01:32:59.149Z,50.13
2023-04-11T01:35:27.953Z,49.95
2023-04-11T01:37:56.702Z,49.85
2023-04-11T01:40:26.215Z,49.55
2023-04-11T01:42:55.826Z,49.63
2023-04-11T01:45:25.764Z,49.42
2023-04-11T01:47:57.293Z,49.43
2023-04-11T01:50:25.936Z,49.30
2023-04-11T01:52:55.457Z,49.37
2023-04-11T01:55:24.064Z,49.55
2023-04-11T01:57:52.278Z,49.53
2023-04-11T02:00:23.003Z,49.65
2023-04-11T02:02:52.073Z,49.38
2023-04-11T02:05:20.733Z,49.48
2023-04-11T02:07:49.213Z,49.51
2023-04-11T02:10:20.008Z,49.35
2023-04-11T02:12:48.560Z,49.53
2023-04-11T02:15:17.741Z,49.29
2023-04-11T02:17:49.705Z,49.32
2023-04-11T02:20:20.643Z,49.39
2023-04-11T02:22:49.057Z,49.25
2023-04-11T02:25:17.338Z,49.29
2023-04-11T02:27:47.385Z,49.36
2023-04-11T02:30:17.145Z,49.31
2023-04-11T02:32:46.818Z,49.26
2023-04-11T02:35:16.752Z,49.30
2023-04-11T02:37:45.087Z,49.39
2023-04-11T02:40:13.386Z,49.40
2023-04-11T02:42:43.388Z,49.47
2023-04-11T02:45:24.137Z,49.62
2023-04-11T02:47:52.585Z,49.79
2023-04-11T02:50:20.848Z,49.81
2023-04-11T02:52:52.812Z,50.00
2023-04-11T02:55:25.397Z,50.12
2023-04-11T02:57:56.383Z,50.25
2023-04-11T03:00:31.066Z,50.20
2023-04-11T03:03:07.067Z,50.23
2023-04-11T03:05:41.113Z,50.18
2023-04-11T03:08:09.399Z,50.13
2023-04-11T03:10:42.606Z,50.18
2023-04-11T03:13:12.876Z,50.02
2023-04-11T03:15:41.945Z,50.11
2023-04-11T03:18:12.609Z,50.03
2023-04-11T03:20:44.729Z,50.10
2023-04-11T03:23:15.506Z,50.00
2023-04-11T03:25:48.198Z,50.08
2023-04-11T03:28:17.490Z,50.30
2023-04-11T03:30:46.478Z,50.36
2023-04-11T03:33:19.969Z,50.34
2023-04-11T03:35:48.193Z,50.40
2023-04-11T03:38:16.613Z,50.57
2023-04-11T03:40:45.062Z,50.52
2023-04-11T03:43:17.998Z,50.83
2023-04-11T03:45:47.168Z,50.95
2023-04-11T03:48:30.127Z,50.90
2023-04-11T03:51:04.453Z,50.96
2023-04-11T03:53:41.656Z,51.12
2023-04-11T03:56:32.725Z,51.02
2023-04-11T03:59:02.035Z,50.97
2023-04-11T04:01:40.486Z,51.19
2023-04-11T04:04:14.066Z,51.28
2023-04-11T04:06:46.149Z,51.23
2023-04-11T04:09:15.157Z,51.50
2023-04-11T04:11:49.214Z,51.64
2023-04-11T04:14:20.043Z,51.88
2023-04-11T04:16:49.584Z,51.86
2023-04-11T04:19:19.039Z,51.61
2023-04-11T04:21:50.249Z,51.67
2023-04-11T04:24:20.488Z,51.72
2023-04-11T04:27:10.467Z,51.68
2023-04-11T04:30:03.590Z,51.69
2023-04-11T04:32:54.785Z,51.41
2023-04-11T04:35:26.994Z,51.45
2023-04-11T04:37:56.415Z,51.29
2023-04-11T04:40:46.327Z,51.21
2023-04-11T04:43:24.265Z,51.04
2023-04-11T04:46:08.387Z,50.81
2023-04-11T04:48:48.851Z,50.71
2023-04-11T04:51:17.545Z,50.76
2023-04-11T04:53:46.371Z,50.71
2023-04-11T04:56:18.451Z,50.65
2023-04-11T04:58:48.630Z,50.74
2023-04-11T05:01:18.667Z,50.66
2023-04-11T05:03:59.220Z,50.49
2023-04-11T05:06:45.062Z,50.46
2023-04-11T05:09:13.648Z,50.07
2023-04-11T05:11:41.961Z,50.20
2023-04-11T05:14:11.361Z,49.92
2023-04-11T05:16:42.440Z,50.00
2023-04-11T05:19:13.400Z,49.87
2023-04-11T05:21:47.735Z,49.75
2023-04-11T05:24:16.899Z,49.75
2023-04-11T05:26:45.967Z,49.81
2023-04-11T05:29:18.322Z,49.87
2023-04-11T05:31:48.517Z,49.73
2023-04-11T05:34:16.723Z,49.80
2023-04-11T05:36:47.320Z,49.86
2023-04-11T05:39:18.651Z,49.98
2023-04-11T05:41:51.415Z,49.86
2023-04-11T05:44:21.568Z,50.05
2023-04-11T05:46:50.698Z,49.99
2023-04-11T05:49:19.810Z,50.02
2023-04-11T05:51:48.786Z,49.93
2023-04-11T05:54:35.959Z,50.05
2023-04-11T05:57:06.302Z,49.93
2023-04-11T05:59:37.850Z,49.94
2023-04-11T06:02:07.905Z,50.00
2023-04-11T06:04:36.339Z,49.98
2023-04-11T06:07:06.663Z,50.08
2023-04-11T06:09:36.243Z,49.94
2023-04-11T06:12:05.667Z,49.91
2023-04-11T06:14:38.702Z,50.13
2023-04-11T06:17:14.826Z,50.15
2023-04-11T06:19:43.429Z,49.92
2023-04-11T06:22:11.875Z,50.27
2023-04-11T06:24:45.750Z,50.15
2023-04-11T06:27:16.512Z,50.23
2023-04-11T06:29:46.999Z,50.28
2023-04-11T06:32:20.010Z,50.38
2023-04-11T06:34:48.718Z,50.33
2023-04-11T06:37:17.229Z,50.29
2023-04-11T06:39:48.931Z,50.58
2023-04-11T06:42:17.384Z,50.49
2023-04-11T06:44:47.002Z,50.29
2023-04-11T06:47:16.010Z,50.33
2023-04-11T06:49:44.062Z,50.31
2023-04-11T06:52:12.796Z,50.31
2023-04-11T06:54:42.492Z,50.19
2023-04-11T06:57:10.821Z,50.28
2023-04-11T06:59:39.038Z,50.19
2023-04-11T07:02:08.003Z,50.13
2023-04-11T07:04:38.498Z,50.30
2023-04-11T07:07:06.906Z,50.30
2023-04-11T07:09:39.744Z,50.29
2023-04-11T07:12:09.799Z,49.94
2023-04-11T07:14:42.958Z,50.36
2023-04-11T07:17:10.979Z,50.43
2023-04-11T07:19:42.111Z,50.13
2023-04-11T07:22:10.129Z,50.13
2023-04-11T07:24:39.084Z,50.16
2023-04-11T07:27:07.661Z,50.11
2023-04-11T07:29:37.819Z,49.70
2023-04-11T07:32:06.423Z,49.61
2023-04-11T07:34:36.845Z,49.49
2023-04-11T07:37:05.482Z,49.13
2023-04-11T07:39:36.896Z,48.75
2023-04-11T07:42:06.343Z,48.28
2023-04-11T07:44:34.567Z,47.89
2023-04-11T07:47:03.786Z,47.63
2023-04-11T07:49:32.030Z,47.64
2023-04-11T07:52:01.089Z,47.56
2023-04-11T07:54:31.048Z,47.46
2023-04-11T07:57:00.703Z,47.32
2023-04-11T07:59:29.060Z,47.21
2023-04-11T08:02:05.530Z,46.95
2023-04-11T08:04:37.246Z,46.80
2023-04-11T08:07:11.867Z,46.64
2023-04-11T08:09:42.589Z,46.44
2023-04-11T08:12:13.714Z,46.25
2023-04-11T08:14:41.841Z,46.31
2023-04-11T08:17:21.056Z,46.02
2023-04-11T08:19:57.916Z,46.07
2023-04-11T08:22:26.767Z,45.72
2023-04-11T08:24:56.495Z,45.56
2023-04-11T08:27:25.270Z,45.57
2023-04-11T08:29:55.269Z,45.63
2023-04-11T08:32:23.331Z,45.34
2023-04-11T08:34:53.559Z,45.14
2023-04-11T08:37:21.704Z,45.33
2023-04-11T08:39:50.444Z,44.96
2023-04-11T08:42:26.965Z,44.68
2023-04-11T08:45:13.826Z,44.19
2023-04-11T08:47:45.552Z,44.43
2023-04-11T08:50:16.267Z,44.39
2023-04-11T08:52:51.279Z,43.91
2023-04-11T08:55:19.371Z,44.00
2023-04-11T08:57:50.146Z,43.90
2023-04-11T09:00:25.278Z,43.23
2023-04-11T09:03:06.724Z,42.97
2023-04-11T09:06:09.111Z,42.69
2023-04-11T09:08:39.604Z,43.03
2023-04-11T09:11:07.920Z,42.79
2023-04-11T09:13:36.740Z,42.38
2023-04-11T09:16:14.954Z,42.21
2023-04-11T09:18:47.452Z,42.26
2023-04-11T09:21:20.016Z,41.48
2023-04-11T09:23:48.220Z,41.35
2023-04-11T09:26:35.781Z,41.15
2023-04-11T09:29:03.881Z,41.46
2023-04-11T09:31:45.562Z,40.84
2023-04-11T09:34:26.256Z,40.55
2023-04-11T09:36:56.675Z,40.79
2023-04-11T09:39:28.595Z,40.26
2023-04-11T09:41:58.604Z,40.34
2023-04-11T09:44:38.594Z,39.77
2023-04-11T09:47:07.944Z,39.96
2023-04-11T09:49:37.062Z,39.61
2023-04-11T09:52:06.752Z,39.05
2023-04-11T09:54:36.145Z,39.23
2023-04-11T09:57:06.043Z,38.96
2023-04-11T09:59:41.545Z,39.28
2023-04-11T10:02:09.707Z,38.95
2023-04-11T10:04:41.045Z,38.87
2023-04-11T10:07:17.164Z,38.80
2023-04-11T10:09:50.028Z,38.51
2023-04-11T10:12:35.410Z,38.05
2023-04-11T10:15:12.907Z,38.20
2023-04-11T10:17:42.087Z,38.21
2023-04-11T10:20:32.520Z,38.27
2023-04-11T10:23:02.128Z,38.94
2023-04-11T10:25:30.835Z,39.40
2023-04-11T10:28:07.069Z,39.56
2023-04-11T10:30:42.800Z,39.68
2023-04-11T10:33:20.876Z,39.69
2023-04-11T10:36:05.685Z,39.90
2023-04-11T10:38:49.790Z,40.04
2023-04-11T10:41:27.050Z,40.00
2023-04-11T10:44:23.440Z,39.78
2023-04-11T10:46:54.711Z,39.41
2023-04-11T10:49:36.968Z,39.67
2023-04-11T10:52:24.975Z,38.89
2023-04-11T10:54:56.962Z,38.78
2023-04-11T10:57:32.211Z,38.80
2023-04-11T11:00:12.825Z,38.44
2023-04-11T11:02:42.620Z,37.83
2023-04-11T11:05:20.723Z,37.07
2023-04-11T11:07:50.258Z,37.19
2023-04-11T11:10:37.484Z,37.07
2023-04-11T11:13:05.964Z,38.04
2023-04-11T11:15:50.722Z,38.67
2023-04-11T11:18:19.335Z,39.41
2023-04-11T11:20:48.120Z,39.79
2023-04-11T11:23:17.575Z,40.20
2023-04-11T11:25:58.120Z,40.62
2023-04-11T11:30:58.616Z,40.54
2023-04-11T11:33:27.130Z,40.54
2023-04-11T11:36:02.511Z,40.82
2023-04-11T11:38:31.454Z,40.45
2023-04-11T11:41:00.744Z,40.38
2023-04-11T11:43:30.273Z,40.08
2023-04-11T11:46:14.683Z,40.18
2023-04-11T11:49:00.322Z,40.25
2023-04-11T11:51:49.765Z,40.33
2023-04-11T11:54:17.767Z,40.27
2023-04-11T11:56:54.982Z,40.00
2023-04-11T11:59:28.566Z,39.96
2023-04-11T12:01:57.081Z,40.14
2023-04-11T12:04:25.213Z,39.87
2023-04-11T12:06:57.473Z,39.15
2023-04-11T12:09:31.891Z,38.92
2023-04-11T12:12:04.392Z,38.84
2023-04-11T12:14:32.900Z,38.98
2023-04-11T12:17:05.154Z,38.95
2023-04-11T12:19:33.159Z,38.65
2023-04-11T12:22:02.953Z,38.50
2023-04-11T12:24:31.227Z,38.54
2023-04-11T12:27:06.806Z,38.66
2023-04-11T12:29:36.140Z,38.67
2023-04-11T12:32:05.175Z,38.28
2023-04-11T12:34:35.066Z,37.88
2023-04-11T12:37:03.932Z,37.89
2023-04-11T12:39:32.572Z,38.13
2023-04-11T12:42:01.930Z,37.79
2023-04-11T12:44:29.883Z,37.70
2023-04-11T12:46:57.859Z,37.17
2023-04-11T12:49:26.814Z,36.85
2023-04-11T12:51:56.024Z,36.70
2023-04-11T12:54:26.478Z,36.45
2023-04-11T12:56:58.243Z,36.20
2023-04-11T12:59:31.366Z,36.27
2023-04-11T13:02:00.863Z,36.79
2023-04-11T13:04:30.918Z,37.13
2023-04-11T13:07:03.972Z,36.79
2023-04-11T13:09:34.713Z,37.27
2023-04-11T13:12:03.110Z,37.11
2023-04-11T13:14:31.308Z,37.40
2023-04-11T13:17:04.298Z,37.62
2023-04-11T13:19:34.813Z,37.76
2023-04-11T13:22:03.428Z,37.67
2023-04-11T13:24:32.260Z,37.46
2023-04-11T13:27:00.574Z,37.47
2023-04-11T13:29:30.364Z,37.12
2023-04-11T13:32:00.862Z,36.86
2023-04-11T13:34:31.128Z,36.55
2023-04-11T13:37:00.349Z,36.16
2023-04-11T13:39:28.484Z,36.27
2023-04-11T13:41:57.232Z,36.33
2023-04-11T13:44:25.296Z,36.10
2023-04-11T13:46:55.973Z,36.07
2023-04-11T13:49:26.568Z,35.97
2023-04-11T13:51:54.621Z,36.05
2023-04-11T13:54:23.171Z,35.98
2023-04-11T13:56:51.114Z,36.03
2023-04-11T13:59:18.948Z,35.91
2023-04-11T14:01:47.414Z,36.36
2023-04-11T14:04:19.904Z,36.27
2023-04-11T14:06:50.151Z,35.52
2023-04-11T14:09:21.625Z,35.43
2023-04-11T14:11:53.415Z,35.09
2023-04-11T14:14:24.477Z,35.17
2023-04-11T14:16:52.422Z,35.35
2023-04-11T14:19:24.757Z,35.23
2023-04-11T14:21:54.927Z,34.43
2023-04-11T14:24:24.037Z,34.44
2023-04-11T14:26:52.360Z,33.56
2023-04-11T14:29:21.753Z,33.52
2023-04-11T14:31:51.318Z,33.06
2023-04-11T14:34:23.510Z,33.05
2023-04-11T14:36:52.754Z,32.84
2023-04-11T14:39:21.012Z,32.80
2023-04-11T14:41:49.549Z,32.74
2023-04-11T14:44:18.201Z,33.29
2023-04-11T14:46:46.237Z,33.13
2023-04-11T14:49:14.304Z,32.52
2023-04-11T14:51:42.394Z,32.92
2023-04-11T14:54:10.392Z,33.02
2023-04-11T14:56:38.731Z,32.77
2023-04-11T14:59:07.735Z,32.61
2023-04-11T15:01:37.118Z,32.63
2023-04-11T15:04:08.167Z,32.78
2023-04-11T15:06:36.255Z,32.84
2023-04-11T15:09:04.817Z,32.95
2023-04-11T15:11:36.017Z,32.61
2023-04-11T15:14:06.998Z,32.74
2023-04-11T15:16:36.393Z,32.62
2023-04-11T15:19:08.559Z,32.59
2023-04-11T15:21:38.337Z,32.70
2023-04-11T15:24:11.403Z,32.69
2023-04-11T15:26:44.983Z,32.60
2023-04-11T15:29:20.474Z,32.74
2023-04-11T15:31:50.327Z,32.95
2023-04-11T15:34:23.212Z,32.79
2023-04-11T15:36:51.572Z,32.61
2023-04-11T15:39:19.464Z,32.11
2023-04-11T15:41:49.462Z,31.95
2023-04-11T15:44:18.284Z,32.14
2023-04-11T15:46:49.471Z,31.88
2023-04-11T15:49:18.918Z,31.84
2023-04-11T15:51:48.698Z,32.12
2023-04-11T15:54:24.042Z,31.69
2023-04-11T15:56:52.588Z,31.77
2023-04-11T15:59:20.831Z,31.96
2023-04-11T16:01:49.057Z,32.29
2023-04-11T16:04:19.835Z,32.43
2023-04-11T16:06:48.594Z,32.28
2023-04-11T16:09:17.439Z,32.80
2023-04-11T16:11:52.155Z,32.77
2023-04-11T16:14:22.067Z,32.86
2023-04-11T16:16:50.137Z,32.83
2023-04-11T16:19:19.671Z,32.71
2023-04-11T16:21:49.455Z,32.56
2023-04-11T16:24:19.003Z,32.78
2023-04-11T16:26:46.921Z,32.73
2023-04-11T16:29:15.300Z,32.67
2023-04-11T16:31:43.698Z,32.92
2023-04-11T16:34:12.215Z,33.08
2023-04-11T16:36:40.160Z,32.86
2023-04-11T16:39:10.009Z,32.88
2023-04-11T16:41:39.355Z,33.22
2023-04-11T16:44:11.487Z,32.82
2023-04-11T16:46:42.512Z,32.79
2023-04-11T16:49:11.413Z,32.58
2023-04-11T16:51:43.494Z,32.51
2023-04-11T16:54:12.360Z,32.40
2023-04-11T16:56:59.089Z,32.54
2023-04-11T16:59:47.325Z,32.41
2023-04-11T17:02:36.434Z,32.34
2023-04-11T17:05:25.649Z,32.40
2023-04-11T17:08:17.137Z,32.69
2023-04-11T17:11:08.575Z,32.56
2023-04-11T17:13:57.092Z,32.45
2023-04-11T17:16:47.216Z,32.35
2023-04-11T17:19:36.126Z,32.39
2023-04-11T17:22:28.412Z,32.39
2023-04-11T17:25:17.278Z,32.63
2023-04-11T17:28:07.917Z,32.80
2023-04-11T17:30:57.501Z,32.78
2023-04-11T17:33:45.932Z,32.96
2023-04-11T17:36:37.438Z,32.83
2023-04-11T17:39:26.871Z,33.10
2023-04-11T17:42:15.098Z,33.04
2023-04-11T17:44:45.017Z,33.12
2023-04-11T17:47:13.150Z,33.13
2023-04-11T17:49:41.389Z,33.04
2023-04-11T17:52:10.390Z,33.00
2023-04-11T17:54:38.740Z,33.04
2023-04-11T17:57:07.239Z,33.07
2023-04-11T17:59:35.250Z,32.95
2023-04-11T18:02:07.482Z,32.98
2023-04-11T18:04:35.607Z,33.19
2023-04-11T18:07:03.826Z,33.27
2023-04-11T18:09:36.243Z,33.45
2023-04-11T18:12:04.180Z,33.54
2023-04-11T18:14:33.925Z,33.61
2023-04-11T18:17:03.766Z,33.60
2023-04-11T18:19:33.594Z,33.94
2023-04-11T18:22:01.506Z,33.74
2023-04-11T18:24:48.501Z,33.73
2023-04-11T18:27:40.744Z,33.81
2023-04-11T18:30:30.837Z,33.75
2023-04-11T18:33:20.637Z,33.83
2023-04-11T18:36:09.301Z,33.97
2023-04-11T18:38:58.199Z,33.90
2023-04-11T18:41:48.343Z,33.91
2023-04-11T18:44:41.398Z,34.16
2023-04-11T18:47:29.817Z,34.19
2023-04-11T18:50:20.085Z,34.00
2023-04-11T18:53:11.851Z,34.04
2023-04-11T18:55:42.912Z,34.06
2023-04-11T18:58:14.107Z,34.07
2023-04-11T19:00:44.668Z,34.25
2023-04-11T19:03:15.093Z,34.42
2023-04-11T19:06:06.421Z,34.37
2023-04-11T19:08:54.903Z,34.43
2023-04-11T19:11:43.587Z,34.39
2023-04-11T19:14:11.769Z,34.33
2023-04-11T19:16:40.183Z,34.39
2023-04-11T19:19:08.410Z,34.32
2023-04-11T19:21:38.752Z,34.12
2023-04-11T19:24:07.000Z,34.26
2023-04-11T19:26:35.225Z,34.47
2023-04-11T19:29:04.626Z,34.49
2023-04-11T19:31:32.808Z,34.54
2023-04-11T19:34:00.952Z,34.53
2023-04-11T19:36:29.672Z,34.58
2023-04-11T19:38:58.025Z,34.81
2023-04-11T19:41:26.165Z,34.83
2023-04-11T19:43:55.335Z,34.88
2023-04-11T19:46:24.712Z,34.84
2023-04-11T19:48:52.758Z,34.80
2023-04-11T19:51:21.364Z,35.13
2023-04-11T19:53:49.639Z,35.08
2023-04-11T19:56:17.874Z,35.18
2023-04-11T19:58:46.776Z,35.05
2023-04-11T20:01:18.894Z,35.18
2023-04-11T20:03:46.899Z,35.24
2023-04-11T20:06:15.267Z,35.37
2023-04-11T20:08:43.676Z,35.43
2023-04-11T20:11:15.732Z,35.71
2023-04-11T20:13:44.844Z,35.77
2023-04-11T20:16:14.239Z,35.80
2023-04-11T20:18:42.802Z,35.88
2023-04-11T20:21:11.999Z,35.95
2023-04-11T20:23:41.726Z,35.87
2023-04-11T20:26:11.244Z,35.83
2023-04-11T20:28:39.547Z,35.92
2023-04-11T20:31:08.670Z,35.97
2023-04-11T20:33:36.962Z,36.20
2023-04-11T20:36:06.433Z,36.21
2023-04-11T20:38:34.542Z,36.23
2023-04-11T20:41:05.659Z,36.18
2023-04-11T20:43:33.932Z,36.51
2023-04-11T20:46:08.515Z,36.30
2023-04-11T20:48:37.693Z,36.30
2023-04-11T20:51:08.002Z,36.41
2023-04-11T20:53:40.974Z,36.42
2023-04-11T20:56:13.335Z,36.45
2023-04-11T20:58:41.474Z,36.38
2023-04-11T21:01:10.409Z,36.29
2023-04-11T21:03:42.523Z,36.55
2023-04-11T21:06:13.056Z,36.50
2023-04-11T21:08:41.990Z,36.52
2023-04-11T21:11:10.403Z,36.54
2023-04-11T21:13:39.775Z,36.55
2023-04-11T21:16:10.108Z,36.86
2023-04-11T21:18:38.522Z,36.81
2023-04-11T21:21:07.740Z,36.65
2023-04-11T21:23:36.925Z,36.74
2023-04-11T21:26:05.258Z,36.81
2023-04-11T21:28:33.329Z,36.93
2023-04-11T21:31:01.517Z,36.81
2023-04-11T21:33:29.761Z,36.93
2023-04-11T21:35:58.413Z,36.70
2023-04-11T21:38:26.863Z,36.97
2023-04-11T21:40:56.869Z,37.08
2023-04-11T21:43:25.104Z,37.08
2023-04-11T21:45:53.066Z,37.17
2023-04-11T21:48:21.494Z,37.18
2023-04-11T21:50:49.595Z,37.28
2023-04-11T21:53:18.274Z,37.14
2023-04-11T21:55:47.096Z,37.05
2023-04-11T21:58:27.914Z,37.25
2023-04-11T22:00:57.509Z,37.19
2023-04-11T22:03:26.977Z,37.14
2023-04-11T22:05:56.576Z,37.41
2023-04-11T22:08:29.369Z,37.09
2023-04-11T22:10:57.910Z,37.09
2023-04-11T22:13:26.113Z,37.10
2023-04-11T22:16:05.374Z,37.09
2023-04-11T22:18:50.001Z,37.15
2023-04-11T22:21:20.540Z,37.00
2023-04-11T22:23:55.618Z,37.07
2023-04-11T22:26:29.521Z,37.04
2023-04-11T22:28:58.428Z,37.12
2023-04-11T22:31:39.066Z,37.09
2023-04-11T22:34:10.586Z,37.09
2023-04-11T22:36:59.217Z,37.24
2023-04-11T22:39:27.309Z,37.16
2023-04-11T22:41:56.461Z,37.04
2023-04-11T22:44:24.908Z,37.13
2023-04-11T22:47:08.712Z,37.02
2023-04-11T22:49:42.938Z,37.29
2023-04-11T22:52:15.223Z,37.19
2023-04-11T22:54:44.127Z,37.22
2023-04-11T22:57:12.233Z,37.05
2023-04-11T22:59:41.339Z,37.21
2023-04-11T23:02:09.700Z,37.01
2023-04-11T23:04:38.240Z,37.32
2023-04-11T23:07:06.203Z,37.55
2023-04-11T23:09:34.554Z,37.32
2023-04-11T23:12:02.602Z,37.46
2023-04-11T23:14:32.002Z,37.28
2023-04-11T23:17:00.444Z,37.40
2023-04-11T23:19:30.042Z,37.33
2023-04-11T23:21:59.539Z,37.41
2023-04-11T23:24:29.441Z,37.94
2023-04-11T23:26:58.612Z,37.86
2023-04-11T23:29:27.578Z,37.96
2023-04-11T23:31:56.097Z,38.27
2023-04-11T23:34:25.391Z,38.50
2023-04-11T23:36:53.434Z,38.47
2023-04-11T23:39:21.647Z,38.35
2023-04-11T23:41:52.700Z,38.50
2023-04-11T23:44:20.721Z,38.27
2023-04-11T23:46:49.552Z,38.23
2023-04-11T23:49:17.428Z,38.21
2023-04-11T23:51:45.330Z,38.17
2023-04-11T23:54:14.126Z,38.36
2023-04-11T23:56:43.726Z,38.40
2023-04-11T23:59:12.135Z,38.58
